Time;durP1;ratioP1;P1;durP2;ratioP2;P2;SDS_P1;SDS_P2;PMS_P1;PMS_P2;Temp;Humidity;BMP_temperature;BMP_pressure;BME280_temperature;BME280_humidity;BME280_pressure;Samples;Min_cycle;Max_cycle;Signal;HPM_P1;HPM_P2
2023/06/19 00:00:12;;;;;;;5.93;5.53;;;23.90;42.60;;;;;;5002141;28;20687;-75
2023/06/19 00:02:39;;;;;;;6.13;5.73;;;23.90;42.60;;;;;;5010041;28;20226;-74
2023/06/19 00:05:04;;;;;;;5.70;5.40;;;23.90;42.60;;;;;;5015234;28;20455;-75
2023/06/19 00:07:30;;;;;;;5.40;5.10;;;23.90;42.60;;;;;;5013232;28;20799;-74
2023/06/19 00:09:55;;;;;;;5.93;5.60;;;23.90;42.70;;;;;;5014913;28;20222;-74
2023/06/19 00:12:21;;;;;;;5.33;5.03;;;23.90;42.60;;;;;;5013356;28;20677;-74
2023/06/19 00:14:47;;;;;;;5.47;5.17;;;23.90;42.60;;;;;;5017016;28;20754;-74
2023/06/19 00:17:16;;;;;;;5.53;5.07;;;23.90;42.60;;;;;;4999526;28;20242;-74
2023/06/19 00:19:42;;;;;;;5.37;5.07;;;23.90;42.60;;;;;;5015350;28;20297;-74
2023/06/19 00:22:08;;;;;;;5.77;5.47;;;23.90;42.60;;;;;;5001492;28;21426;-74
2023/06/19 00:24:33;;;;;;;5.83;5.43;;;23.90;42.60;;;;;;5006847;28;20460;-74
2023/06/19 00:27:02;;;;;;;5.60;5.30;;;23.90;42.60;;;;;;5003754;28;20251;-74
2023/06/19 00:29:34;;;;;;;5.80;5.50;;;23.90;42.60;;;;;;5008742;28;20243;-75
2023/06/19 00:32:00;;;;;;;5.70;5.30;;;23.90;42.60;;;;;;5010489;28;20483;-74
2023/06/19 00:34:28;;;;;;;5.40;5.10;;;23.90;42.60;;;;;;5004259;28;20587;-74
2023/06/19 00:36:57;;;;;;;5.63;5.33;;;23.90;42.60;;;;;;5012098;28;20227;-74
2023/06/19 00:39:23;;;;;;;5.70;5.20;;;23.80;42.60;;;;;;5013622;28;20498;-73
2023/06/19 00:41:51;;;;;;;5.30;4.90;;;23.90;42.60;;;;;;5028758;28;20895;-74
2023/06/19 00:44:17;;;;;;;5.20;4.90;;;23.80;42.60;;;;;;5015335;28;20457;-74
2023/06/19 00:46:42;;;;;;;5.27;4.97;;;23.90;42.60;;;;;;5017974;28;20440;-75
2023/06/19 00:49:08;;;;;;;6.10;5.70;;;23.90;42.60;;;;;;5008241;28;20228;-75
2023/06/19 00:51:34;;;;;;;5.23;4.90;;;23.90;42.60;;;;;;5010237;28;20321;-74
2023/06/19 00:54:00;;;;;;;4.47;4.27;;;23.90;42.60;;;;;;5010986;28;20222;-75
2023/06/19 00:56:25;;;;;;;5.70;5.40;;;23.80;42.60;;;;;;5010500;28;20230;-74
2023/06/19 00:58:53;;;;;;;5.50;5.20;;;23.90;42.60;;;;;;5013213;28;20219;-74
2023/06/19 01:01:21;;;;;;;5.30;5.00;;;23.90;42.60;;;;;;5003602;28;20697;-74
2023/06/19 01:03:46;;;;;;;5.43;5.13;;;23.90;42.70;;;;;;5014652;28;20459;-74
2023/06/19 01:06:22;;;;;;;4.43;4.20;;;23.80;42.60;;;;;;5015080;28;20474;-74
2023/06/19 01:09:04;;;;;;;5.17;4.87;;;23.90;42.60;;;;;;5012758;28;20740;-74
2023/06/19 01:11:39;;;;;;;5.30;5.00;;;23.90;42.60;;;;;;5014980;28;20463;-73
2023/06/19 01:14:14;;;;;;;5.03;4.73;;;23.90;42.60;;;;;;5010839;28;20536;-74
2023/06/19 01:16:40;;;;;;;5.53;5.07;;;23.90;42.60;;;;;;5002718;28;20873;-74
2023/06/19 01:19:11;;;;;;;4.97;4.73;;;23.80;42.60;;;;;;4998042;28;20464;-74
2023/06/19 01:21:37;;;;;;;5.13;4.87;;;23.80;42.60;;;;;;5015967;28;20457;-74
2023/06/19 01:24:03;;;;;;;5.53;5.20;;;23.80;42.60;;;;;;5004638;28;20447;-74
2023/06/19 01:26:28;;;;;;;5.13;4.93;;;23.80;42.60;;;;;;5011667;28;21028;-74
2023/06/19 01:28:55;;;;;;;5.40;5.10;;;23.80;42.60;;;;;;5016550;28;20222;-74
2023/06/19 01:31:27;;;;;;;4.30;4.10;;;23.80;42.60;;;;;;5009529;28;20217;-74
2023/06/19 01:33:54;;;;;;;4.30;4.10;;;23.80;42.60;;;;;;5013575;28;21006;-74
2023/06/19 01:36:21;;;;;;;4.60;4.40;;;23.80;42.60;;;;;;4997784;28;21007;-74
2023/06/19 01:38:48;;;;;;;4.67;4.47;;;23.80;42.60;;;;;;5009722;28;20470;-74
2023/06/19 01:41:16;;;;;;;5.30;5.00;;;23.80;42.60;;;;;;5004173;28;20448;-74
2023/06/19 01:43:42;;;;;;;5.70;5.30;;;23.80;42.60;;;;;;5012435;28;20444;-74
2023/06/19 01:46:07;;;;;;;4.90;4.60;;;23.80;42.60;;;;;;5017406;28;20447;-75
2023/06/19 01:48:35;;;;;;;4.50;4.30;;;23.80;42.60;;;;;;5009643;28;21088;-75
2023/06/19 01:51:03;;;;;;;4.30;4.10;;;23.80;42.60;;;;;;5017865;28;20701;-74
2023/06/19 01:53:30;;;;;;;4.47;4.27;;;23.80;42.60;;;;;;5016305;28;20558;-75
2023/06/19 01:55:56;;;;;;;4.93;4.63;;;23.80;42.60;;;;;;5008881;28;21046;-74
2023/06/19 01:58:21;;;;;;;4.87;4.67;;;23.80;42.60;;;;;;5004242;28;20461;-74
2023/06/19 02:00:47;;;;;;;4.87;4.57;;;23.80;42.60;;;;;;5013444;28;20227;-74
2023/06/19 02:03:12;;;;;;;5.03;4.73;;;23.80;42.60;;;;;;5013955;28;20242;-74
2023/06/19 02:05:39;;;;;;;4.57;4.37;;;23.80;42.60;;;;;;5019054;28;20761;-74
2023/06/19 02:08:06;;;;;;;4.10;3.90;;;23.80;42.60;;;;;;5008199;28;20615;-74
2023/06/19 02:10:32;;;;;;;4.50;4.30;;;23.80;42.60;;;;;;5008571;28;21986;-75
2023/06/19 02:12:57;;;;;;;4.43;4.23;;;23.80;42.60;;;;;;5011429;28;21024;-74
2023/06/19 02:15:23;;;;;;;4.10;3.90;;;23.80;42.60;;;;;;5018666;28;20460;-74
2023/06/19 02:17:49;;;;;;;3.87;3.67;;;23.80;42.60;;;;;;5008540;28;20235;-73
2023/06/19 02:20:14;;;;;;;3.83;3.63;;;23.80;42.60;;;;;;5011403;28;20239;-74
2023/06/19 02:22:41;;;;;;;4.33;4.13;;;23.80;42.60;;;;;;5004785;28;20254;-74
2023/06/19 02:25:07;;;;;;;4.10;3.90;;;23.80;42.60;;;;;;5014493;28;20560;-74
2023/06/19 02:27:32;;;;;;;4.40;4.20;;;23.80;42.60;;;;;;5004068;28;20812;-74
2023/06/19 02:29:58;;;;;;;4.33;4.13;;;23.80;42.60;;;;;;5001975;28;21084;-74
2023/06/19 02:32:23;;;;;;;4.70;4.50;;;23.80;43.30;;;;;;5016854;28;20234;-75
2023/06/19 02:34:49;;;;;;;4.77;4.57;;;23.80;42.60;;;;;;5004742;28;20246;-74
2023/06/19 02:37:14;;;;;;;4.17;3.97;;;23.80;42.60;;;;;;5006532;28;20269;-73
2023/06/19 02:39:40;;;;;;;3.90;3.70;;;23.80;42.60;;;;;;5019319;28;20608;-74
2023/06/19 02:42:06;;;;;;;4.10;3.90;;;23.80;42.60;;;;;;5010213;28;20219;-74
2023/06/19 02:44:32;;;;;;;4.50;4.20;;;23.80;42.60;;;;;;5023021;28;20267;-74
2023/06/19 02:46:57;;;;;;;4.30;4.10;;;23.80;42.60;;;;;;5013961;28;20242;-74
2023/06/19 02:49:23;;;;;;;3.87;3.67;;;23.80;42.60;;;;;;5005764;28;20223;-75
2023/06/19 02:51:49;;;;;;;4.23;4.03;;;23.80;42.60;;;;;;5016949;28;20730;-74
2023/06/19 02:54:14;;;;;;;3.80;3.60;;;23.80;42.60;;;;;;5007566;28;20223;-74
2023/06/19 02:56:39;;;;;;;3.93;3.63;;;23.80;42.60;;;;;;5008043;28;20242;-74
2023/06/19 02:59:05;;;;;;;4.07;3.87;;;23.80;42.60;;;;;;5013082;28;20249;-74
2023/06/19 03:01:31;;;;;;;4.30;4.10;;;23.80;42.60;;;;;;5008044;28;20673;-74
2023/06/19 03:03:56;;;;;;;4.30;4.10;;;23.80;42.60;;;;;;5016893;28;20235;-74
2023/06/19 03:06:22;;;;;;;3.80;3.60;;;23.80;42.60;;;;;;5014285;28;20712;-74
2023/06/19 03:08:47;;;;;;;4.00;3.80;;;23.80;42.60;;;;;;5015642;28;20230;-74
2023/06/19 03:11:13;;;;;;;4.00;3.80;;;23.80;42.60;;;;;;5011618;28;20999;-73
2023/06/19 03:13:48;;;;;;;4.00;3.80;;;23.80;42.60;;;;;;5016625;28;20238;-74
2023/06/19 03:16:16;;;;;;;4.07;3.87;;;23.80;42.60;;;;;;5017684;28;20233;-74
2023/06/19 03:18:45;;;;;;;3.57;3.37;;;23.80;42.60;;;;;;5016841;28;20824;-74
2023/06/19 03:21:12;;;;;;;4.50;3.67;;;23.80;42.60;;;;;;5011118;28;21030;-73
2023/06/19 03:23:37;;;;;;;3.90;3.70;;;23.80;42.60;;;;;;5009845;28;20499;-74
2023/06/19 03:26:03;;;;;;;4.13;3.93;;;23.80;43.30;;;;;;5009136;28;20487;-74
2023/06/19 03:28:29;;;;;;;3.77;3.57;;;23.80;42.60;;;;;;4999425;28;20637;-74
2023/06/19 03:30:55;;;;;;;3.90;3.70;;;23.80;42.60;;;;;;5012607;28;20313;-74
2023/06/19 03:33:20;;;;;;;3.57;3.30;;;23.80;42.60;;;;;;5013577;28;20219;-74
2023/06/19 03:35:46;;;;;;;3.80;3.60;;;23.80;42.60;;;;;;5018659;28;20472;-73
2023/06/19 03:38:11;;;;;;;3.80;3.60;;;23.80;42.60;;;;;;5012008;28;20247;-73
2023/06/19 03:40:37;;;;;;;3.90;3.70;;;23.80;42.60;;;;;;5015018;28;20235;-74
2023/06/19 03:43:02;;;;;;;4.10;3.73;;;23.80;42.60;;;;;;5006844;28;20234;-74
2023/06/19 03:45:28;;;;;;;4.03;3.83;;;23.80;42.60;;;;;;5006935;28;20216;-74
2023/06/19 03:47:53;;;;;;;3.20;3.00;;;23.80;42.60;;;;;;5016684;28;20586;-74
2023/06/19 03:50:19;;;;;;;3.87;3.67;;;23.80;42.60;;;;;;5017230;28;20227;-74
2023/06/19 03:52:45;;;;;;;3.17;2.97;;;23.80;42.60;;;;;;5008744;28;20214;-69
2023/06/19 03:55:10;;;;;;;3.90;3.70;;;23.80;42.60;;;;;;5010533;28;20257;-70
2023/06/19 03:57:36;;;;;;;3.20;3.00;;;23.80;42.60;;;;;;5011115;28;20227;-68
2023/06/19 04:00:03;;;;;;;3.27;3.17;;;23.80;42.60;;;;;;5004628;28;20615;-67
2023/06/19 04:02:29;;;;;;;3.37;3.17;;;23.80;42.60;;;;;;5003290;28;20360;-69
2023/06/19 04:04:54;;;;;;;3.43;3.23;;;23.80;42.60;;;;;;4991383;28;21268;-69
2023/06/19 04:07:20;;;;;;;3.87;3.67;;;23.80;42.60;;;;;;5009100;28;21259;-69
2023/06/19 04:09:46;;;;;;;3.33;3.13;;;23.80;42.60;;;;;;5013358;28;20218;-69
2023/06/19 04:12:11;;;;;;;3.27;3.07;;;23.80;42.60;;;;;;4998777;28;21146;-69
2023/06/19 04:14:37;;;;;;;3.60;3.30;;;23.80;42.60;;;;;;5001218;28;20694;-68
2023/06/19 04:17:02;;;;;;;3.13;3.03;;;23.80;42.60;;;;;;5008928;28;20273;-68
2023/06/19 04:19:28;;;;;;;3.03;2.83;;;23.90;42.60;;;;;;5000325;28;20281;-68
2023/06/19 04:21:54;;;;;;;3.43;3.23;;;23.90;42.60;;;;;;5002743;28;20298;-67
2023/06/19 04:24:20;;;;;;;3.20;3.00;;;23.90;42.60;;;;;;5008387;28;21512;-69
2023/06/19 04:26:45;;;;;;;3.07;2.90;;;23.90;42.60;;;;;;5006817;28;20471;-69
2023/06/19 04:29:16;;;;;;;5.50;3.40;;;23.90;42.60;;;;;;5010605;28;20663;-68
2023/06/19 04:31:46;;;;;;;3.57;3.37;;;23.90;42.60;;;;;;5015476;28;20215;-69
2023/06/19 04:34:14;;;;;;;3.33;3.13;;;23.90;42.60;;;;;;5015943;28;20964;-69
2023/06/19 04:36:40;;;;;;;3.33;3.13;;;23.90;42.60;;;;;;5012765;28;20465;-69
2023/06/19 04:39:06;;;;;;;3.50;3.30;;;23.90;42.60;;;;;;4993481;28;20457;-69
2023/06/19 04:41:32;;;;;;;3.00;2.83;;;23.90;42.60;;;;;;5002253;28;20522;-68
2023/06/19 04:43:57;;;;;;;3.43;3.23;;;23.90;42.60;;;;;;5003806;28;20360;-69
2023/06/19 04:46:23;;;;;;;3.20;3.00;;;23.90;42.60;;;;;;5018208;28;20226;-69
2023/06/19 04:48:51;;;;;;;2.80;2.70;;;23.90;42.60;;;;;;5020097;28;20230;-69
2023/06/19 04:51:21;;;;;;;3.60;3.40;;;23.90;42.60;;;;;;5021047;28;20839;-69
2023/06/19 04:53:47;;;;;;;3.03;2.83;;;23.90;42.60;;;;;;5003438;28;20505;-69
2023/06/19 04:56:14;;;;;;;2.90;2.80;;;23.80;42.60;;;;;;5012210;28;20476;-68
2023/06/19 04:58:45;;;;;;;3.00;2.73;;;23.90;42.60;;;;;;5011726;28;20503;-68
2023/06/19 05:01:12;;;;;;;4.60;2.70;;;23.90;42.60;;;;;;5014652;28;20465;-68
2023/06/19 05:03:38;;;;;;;2.57;2.47;;;23.90;42.60;;;;;;5013277;28;20456;-68
2023/06/19 05:06:03;;;;;;;3.10;2.90;;;23.90;42.60;;;;;;5013666;28;20452;-71
2023/06/19 05:08:29;;;;;;;3.10;2.90;;;23.90;42.60;;;;;;5012193;28;20222;-69
2023/06/19 05:10:54;;;;;;;2.80;2.60;;;23.90;42.60;;;;;;5010871;28;20214;-68
2023/06/19 05:13:20;;;;;;;2.87;2.77;;;23.90;42.60;;;;;;5015346;28;20725;-75
2023/06/19 05:15:46;;;;;;;3.03;2.83;;;23.90;42.60;;;;;;4990360;28;20227;-71
2023/06/19 05:18:11;;;;;;;3.10;2.90;;;23.90;42.60;;;;;;5017335;28;20226;-69
2023/06/19 05:20:37;;;;;;;3.00;2.80;;;23.90;42.60;;;;;;5008326;28;20217;-67
2023/06/19 05:23:02;;;;;;;2.97;2.87;;;23.90;42.60;;;;;;5004003;28;20215;-67
2023/06/19 05:25:28;;;;;;;2.93;2.73;;;23.90;42.60;;;;;;5010171;28;20259;-71
2023/06/19 05:27:53;;;;;;;2.50;2.40;;;23.90;42.60;;;;;;4996440;28;20306;-70
2023/06/19 05:30:19;;;;;;;2.70;2.53;;;23.90;42.60;;;;;;5016407;28;20226;-70
2023/06/19 05:32:44;;;;;;;2.77;2.57;;;23.80;42.60;;;;;;5016254;28;20308;-69
2023/06/19 05:35:10;;;;;;;2.70;2.60;;;23.90;42.60;;;;;;5009503;28;20218;-68
2023/06/19 05:37:37;;;;;;;2.60;2.50;;;23.80;42.60;;;;;;5010374;28;20318;-68
2023/06/19 05:40:03;;;;;;;3.40;2.87;;;23.80;42.60;;;;;;5018680;28;20272;-69
2023/06/19 05:42:29;;;;;;;2.33;2.23;;;23.80;42.60;;;;;;5014279;28;21113;-69
2023/06/19 05:44:54;;;;;;;2.93;2.60;;;23.80;42.60;;;;;;5004476;28;20215;-69
2023/06/19 05:47:20;;;;;;;4.93;2.50;;;23.80;42.60;;;;;;5011391;28;20300;-68
2023/06/19 05:49:46;;;;;;;2.50;2.30;;;23.80;42.60;;;;;;5012619;28;20253;-69
2023/06/19 05:52:12;;;;;;;2.27;2.17;;;23.80;42.60;;;;;;5011245;28;20226;-69
2023/06/19 05:54:37;;;;;;;2.23;2.13;;;23.80;42.60;;;;;;5014117;28;20747;-69
2023/06/19 05:57:03;;;;;;;2.67;2.47;;;23.80;42.70;;;;;;5009344;28;20242;-70
2023/06/19 05:59:29;;;;;;;2.30;2.20;;;23.80;42.60;;;;;;5009314;28;20216;-69
2023/06/19 06:01:55;;;;;;;2.23;2.13;;;23.80;42.60;;;;;;5009142;28;20214;-69
2023/06/19 06:04:21;;;;;;;2.30;2.20;;;23.80;42.60;;;;;;5012924;28;20221;-69
2023/06/19 06:06:47;;;;;;;2.43;2.23;;;23.80;42.60;;;;;;4996436;28;20460;-70
2023/06/19 06:09:14;;;;;;;2.00;1.90;;;23.80;42.70;;;;;;4991662;28;20474;-70
2023/06/19 06:11:40;;;;;;;2.50;2.30;;;23.80;42.90;;;;;;5016497;28;21037;-69
2023/06/19 06:14:05;;;;;;;3.43;1.90;;;23.80;42.70;;;;;;5017903;28;20444;-70
2023/06/19 06:16:31;;;;;;;2.00;1.90;;;23.80;43.60;;;;;;5004726;28;20267;-70
2023/06/19 06:18:56;;;;;;;2.23;2.13;;;23.80;42.60;;;;;;5002770;28;20265;-70
2023/06/19 06:21:22;;;;;;;2.20;2.10;;;23.80;42.60;;;;;;5001810;28;20237;-69
2023/06/19 06:23:48;;;;;;;2.47;2.27;;;23.80;42.70;;;;;;5020984;28;20276;-69
2023/06/19 06:26:14;;;;;;;2.27;2.07;;;23.80;42.70;;;;;;5012567;28;20250;-69
2023/06/19 06:28:40;;;;;;;2.07;1.97;;;23.80;42.70;;;;;;5010822;28;20249;-69
2023/06/19 06:31:05;;;;;;;2.20;2.10;;;23.80;42.70;;;;;;5011210;28;21002;-70
2023/06/19 06:33:31;;;;;;;2.17;1.97;;;23.80;42.60;;;;;;5021735;28;20296;-70
2023/06/19 06:35:57;;;;;;;2.20;2.10;;;23.80;42.70;;;;;;5014693;28;20234;-70
2023/06/19 06:38:23;;;;;;;2.10;2.00;;;23.90;42.70;;;;;;5014588;28;20705;-69
2023/06/19 06:40:49;;;;;;;1.63;1.53;;;23.80;42.70;;;;;;5014507;28;20537;-70
2023/06/19 06:43:14;;;;;;;2.30;2.20;;;23.80;42.70;;;;;;5010961;28;20226;-69
2023/06/19 06:45:42;;;;;;;1.80;1.70;;;23.80;42.70;;;;;;5002039;28;20360;-70
2023/06/19 06:48:08;;;;;;;2.00;1.90;;;23.80;42.80;;;;;;5010025;28;20219;-69
2023/06/19 06:50:34;;;;;;;1.90;1.80;;;23.90;42.80;;;;;;5000614;28;20460;-71
2023/06/19 06:53:00;;;;;;;2.60;2.00;;;23.80;42.80;;;;;;5011674;28;21121;-70
2023/06/19 06:55:26;;;;;;;1.93;1.83;;;23.80;42.80;;;;;;5011120;28;20599;-70
2023/06/19 06:57:51;;;;;;;2.10;2.00;;;23.80;42.80;;;;;;5008456;28;20460;-70
2023/06/19 07:00:18;;;;;;;2.27;2.07;;;23.80;42.80;;;;;;5001115;28;20306;-71
2023/06/19 07:02:43;;;;;;;2.10;2.00;;;23.90;43.00;;;;;;5007278;28;20218;-70
2023/06/19 07:05:10;;;;;;;1.90;1.80;;;23.80;42.90;;;;;;5011475;28;21346;-70
2023/06/19 07:07:36;;;;;;;1.93;1.83;;;23.80;42.90;;;;;;5009365;28;21046;-69
2023/06/19 07:10:02;;;;;;;2.10;2.00;;;23.80;42.80;;;;;;5014766;28;20435;-70
2023/06/19 07:12:28;;;;;;;2.00;1.90;;;23.80;42.90;;;;;;5012922;28;20460;-70
2023/06/19 07:14:53;;;;;;;1.83;1.73;;;23.80;42.90;;;;;;5019473;28;20861;-70
2023/06/19 07:17:19;;;;;;;2.30;2.20;;;23.90;43.00;;;;;;5020431;28;20238;-70
2023/06/19 07:19:44;;;;;;;2.07;1.97;;;23.80;42.90;;;;;;5015587;28;20414;-69
2023/06/19 07:22:10;;;;;;;1.77;1.67;;;23.90;43.00;;;;;;5016627;28;20675;-70
2023/06/19 07:24:36;;;;;;;2.10;2.00;;;23.90;43.00;;;;;;5017503;28;20691;-70
2023/06/19 07:27:01;;;;;;;1.97;1.87;;;23.90;43.00;;;;;;5015484;28;20234;-70
2023/06/19 07:29:27;;;;;;;2.30;2.20;;;23.90;43.00;;;;;;5016086;28;20215;-70
2023/06/19 07:31:53;;;;;;;1.97;1.87;;;23.90;43.00;;;;;;5009676;28;20316;-69
2023/06/19 07:34:19;;;;;;;1.73;1.63;;;23.90;43.00;;;;;;5016379;28;21162;-70
2023/06/19 07:36:44;;;;;;;1.70;1.60;;;23.90;43.00;;;;;;5034573;28;20262;-69
2023/06/19 07:39:10;;;;;;;1.97;1.80;;;23.90;42.90;;;;;;5019205;28;20554;-70
2023/06/19 07:41:36;;;;;;;1.50;1.40;;;23.90;43.00;;;;;;5021099;28;20306;-70
2023/06/19 07:44:01;;;;;;;1.90;1.80;;;23.90;42.90;;;;;;5013127;28;20230;-70
2023/06/19 07:46:27;;;;;;;1.93;1.83;;;23.90;43.00;;;;;;5006743;28;20538;-69
2023/06/19 07:48:53;;;;;;;1.87;1.77;;;23.80;42.90;;;;;;5009439;28;20253;-69
2023/06/19 07:51:18;;;;;;;1.90;1.80;;;23.90;43.00;;;;;;4998644;28;20220;-71
2023/06/19 07:53:44;;;;;;;2.00;1.90;;;23.90;43.00;;;;;;5013454;28;20608;-71
2023/06/19 07:56:09;;;;;;;1.60;1.50;;;23.80;42.90;;;;;;4989952;28;20976;-70
2023/06/19 07:58:35;;;;;;;1.80;1.70;;;23.90;43.10;;;;;;5012852;28;20555;-70
2023/06/19 08:01:01;;;;;;;1.80;1.70;;;23.90;43.00;;;;;;5010448;28;20262;-71
2023/06/19 08:03:27;;;;;;;1.50;1.40;;;23.90;43.10;;;;;;5013975;28;20214;-70
2023/06/19 08:05:52;;;;;;;1.50;1.40;;;23.90;43.10;;;;;;5010781;28;20667;-71
2023/06/19 08:08:18;;;;;;;1.90;1.80;;;23.90;43.00;;;;;;4998927;28;20464;-71
2023/06/19 08:10:43;;;;;;;1.57;1.47;;;23.90;43.00;;;;;;4991347;28;20286;-70
2023/06/19 08:13:11;;;;;;;2.07;1.97;;;23.90;43.80;;;;;;4994895;28;21075;-71
2023/06/19 08:15:37;;;;;;;1.67;1.57;;;23.90;43.00;;;;;;5020542;28;20234;-70
2023/06/19 08:18:02;;;;;;;1.60;1.50;;;23.90;43.10;;;;;;5008482;28;20671;-70
2023/06/19 08:20:28;;;;;;;2.00;1.90;;;23.90;43.00;;;;;;4993488;28;20259;-69
2023/06/19 08:22:53;;;;;;;1.57;1.47;;;23.90;43.40;;;;;;4995243;28;20785;-70
2023/06/19 08:25:19;;;;;;;1.67;1.57;;;23.90;43.00;;;;;;5002675;28;20694;-69
2023/06/19 08:27:45;;;;;;;2.17;1.60;;;23.90;42.80;;;;;;4994450;28;20674;-69
2023/06/19 08:30:11;;;;;;;1.80;1.70;;;23.90;42.60;;;;;;5004961;28;20218;-69
2023/06/19 08:32:36;;;;;;;1.70;1.60;;;23.90;42.60;;;;;;5018901;28;20250;-69
2023/06/19 08:35:03;;;;;;;1.60;1.50;;;23.90;42.60;;;;;;5013617;28;20762;-71
2023/06/19 08:37:28;;;;;;;1.47;1.37;;;23.90;42.60;;;;;;5012163;28;20361;-70
2023/06/19 08:39:56;;;;;;;1.70;1.60;;;23.90;42.60;;;;;;5021473;28;20539;-71
2023/06/19 08:42:22;;;;;;;1.63;1.53;;;23.90;42.60;;;;;;5015849;28;20226;-71
2023/06/19 08:44:48;;;;;;;1.67;1.57;;;23.90;42.60;;;;;;5021277;28;20496;-71
2023/06/19 08:47:14;;;;;;;1.67;1.57;;;23.90;42.60;;;;;;4994615;28;20555;-71
2023/06/19 08:49:40;;;;;;;1.77;1.67;;;23.90;42.60;;;;;;4999195;28;21003;-71
2023/06/19 08:52:06;;;;;;;1.70;1.60;;;23.90;42.70;;;;;;4999654;28;20231;-71
2023/06/19 08:54:32;;;;;;;1.90;1.80;;;23.90;42.70;;;;;;4998452;28;20235;-71
2023/06/19 08:57:01;;;;;;;1.53;1.43;;;23.90;42.70;;;;;;4999575;28;20480;-70
2023/06/19 08:59:28;;;;;;;1.90;1.70;;;23.90;42.70;;;;;;5005693;28;20232;-71
2023/06/19 09:01:54;;;;;;;1.80;1.70;;;23.90;42.80;;;;;;5007868;28;20464;-70
2023/06/19 09:04:22;;;;;;;1.50;1.40;;;23.90;42.80;;;;;;5004153;28;20465;-71
2023/06/19 09:06:58;;;;;;;1.67;1.57;;;23.90;42.90;;;;;;5010262;28;20991;-70
2023/06/19 09:09:25;;;;;;;1.57;1.47;;;23.90;42.90;;;;;;4998554;28;20468;-71
2023/06/19 09:12:10;;;;;;;1.63;1.53;;;23.90;42.80;;;;;;5015071;28;21340;-71
2023/06/19 09:14:41;;;;;;;1.40;1.30;;;23.90;42.80;;;;;;5006150;28;20843;-71
2023/06/19 09:17:10;;;;;;;1.70;1.60;;;23.90;42.80;;;;;;5019351;28;21063;-72
2023/06/19 09:19:36;;;;;;;1.63;1.53;;;23.90;42.90;;;;;;5014986;28;20480;-71
2023/06/19 09:22:07;;;;;;;1.50;1.40;;;23.90;43.00;;;;;;5006517;28;20532;-72
2023/06/19 09:24:34;;;;;;;1.50;1.40;;;23.90;43.00;;;;;;5010022;28;20226;-72
2023/06/19 09:27:14;;;;;;;1.80;1.70;;;23.90;43.00;;;;;;5001915;28;20465;-71
2023/06/19 09:29:44;;;;;;;1.50;1.40;;;23.90;43.00;;;;;;5000750;28;20437;-72
2023/06/19 09:32:23;;;;;;;1.53;1.43;;;23.90;43.00;;;;;;5006291;28;20445;-71
2023/06/19 09:34:51;;;;;;;1.60;1.50;;;23.90;42.90;;;;;;5003243;28;20968;-72
2023/06/19 09:37:26;;;;;;;1.60;1.50;;;23.90;43.00;;;;;;4998669;28;20994;-71
2023/06/19 09:39:57;;;;;;;1.33;1.23;;;23.90;43.00;;;;;;5006146;28;20436;-71
2023/06/19 09:42:30;;;;;;;1.63;1.33;;;23.90;43.00;;;;;;5003149;28;21077;-71
2023/06/19 09:45:01;;;;;;;1.53;1.43;;;24.00;43.10;;;;;;5003190;28;20437;-71
2023/06/19 09:47:31;;;;;;;1.97;1.20;;;24.00;43.00;;;;;;5003897;28;20448;-72
2023/06/19 09:49:57;;;;;;;1.70;1.60;;;24.00;43.00;;;;;;5016188;28;20444;-71
2023/06/19 09:52:27;;;;;;;1.60;1.50;;;24.00;43.00;;;;;;4997681;28;20519;-71
2023/06/19 11:26:51;;;;;;;1.53;1.43;;;24.00;43.30;;;;;;5002048;28;20471;-72
2023/06/19 11:29:18;;;;;;;1.53;1.43;;;24.00;43.30;;;;;;5007703;28;20448;-71
2023/06/19 11:31:44;;;;;;;1.53;1.43;;;24.00;44.10;;;;;;5006636;28;20437;-72
2023/06/19 11:34:10;;;;;;;1.50;1.40;;;24.00;43.30;;;;;;5002831;28;21339;-70
2023/06/19 11:36:39;;;;;;;1.50;1.40;;;24.00;43.30;;;;;;5006107;28;20951;-71
2023/06/19 11:39:11;;;;;;;1.77;1.67;;;24.00;43.30;;;;;;5003125;28;20192;-71
2023/06/19 11:41:36;;;;;;;1.67;1.57;;;24.00;43.30;;;;;;5007210;28;20433;-71
2023/06/19 11:44:09;;;;;;;1.60;1.50;;;24.00;43.30;;;;;;5007315;28;20435;-71
2023/06/19 11:46:35;;;;;;;1.40;1.30;;;24.00;43.20;;;;;;5007132;28;20223;-71
2023/06/19 11:49:14;;;;;;;1.67;1.57;;;24.00;43.20;;;;;;5007353;28;20970;-71
2023/06/19 11:51:40;;;;;;;1.50;1.40;;;24.00;43.20;;;;;;5004455;28;20191;-71
2023/06/19 11:54:08;;;;;;;1.53;1.43;;;24.10;43.30;;;;;;5007812;28;20441;-71
2023/06/19 11:56:35;;;;;;;1.63;1.53;;;24.10;43.30;;;;;;5002802;28;20464;-71
2023/06/19 11:59:02;;;;;;;1.70;1.60;;;24.10;43.30;;;;;;5005805;28;20547;-71
2023/06/19 12:01:27;;;;;;;1.80;1.70;;;24.10;43.30;;;;;;4997841;28;20996;-71
2023/06/19 12:03:53;;;;;;;1.60;1.50;;;24.10;43.20;;;;;;5007645;28;20463;-72
2023/06/19 12:06:19;;;;;;;1.40;1.30;;;24.10;43.30;;;;;;5004508;28;20283;-71
2023/06/19 12:08:44;;;;;;;1.60;1.50;;;24.10;43.20;;;;;;5007932;28;20230;-71
2023/06/19 12:11:10;;;;;;;1.60;1.50;;;24.10;43.20;;;;;;5004590;28;20194;-72
2023/06/19 12:13:36;;;;;;;1.80;1.70;;;24.10;43.30;;;;;;5007810;28;20294;-72
2023/06/19 12:16:03;;;;;;;1.63;1.53;;;24.10;43.30;;;;;;5003714;28;20207;-71
2023/06/19 12:18:29;;;;;;;1.90;1.80;;;24.10;43.30;;;;;;5006951;28;20252;-71
2023/06/19 12:20:54;;;;;;;1.80;1.70;;;24.10;43.30;;;;;;5004684;28;20461;-72
2023/06/19 12:23:20;;;;;;;1.50;1.40;;;24.10;43.20;;;;;;5004494;28;20253;-71
2023/06/19 12:25:45;;;;;;;1.50;1.40;;;24.10;43.30;;;;;;5004269;28;20231;-71
2023/06/19 12:28:11;;;;;;;2.00;1.60;;;24.10;43.30;;;;;;5007316;28;20191;-71
2023/06/19 12:30:37;;;;;;;1.77;1.67;;;24.10;43.20;;;;;;5003649;28;20191;-71
2023/06/19 12:33:03;;;;;;;1.77;1.67;;;24.10;43.20;;;;;;5003045;28;20183;-71
2023/06/19 12:35:29;;;;;;;1.80;1.70;;;24.10;43.30;;;;;;5004775;28;20213;-71
2023/06/19 12:37:55;;;;;;;1.80;1.70;;;24.10;43.30;;;;;;5005862;28;20468;-71
2023/06/19 12:40:20;;;;;;;1.60;1.50;;;24.10;43.30;;;;;;5003061;28;20188;-71
2023/06/19 12:42:46;;;;;;;1.50;1.40;;;24.10;43.30;;;;;;5004333;28;20195;-71
2023/06/19 12:45:12;;;;;;;1.80;1.70;;;24.10;43.20;;;;;;5000041;28;20233;-71
2023/06/19 12:47:38;;;;;;;1.80;1.70;;;24.10;43.20;;;;;;5005262;28;20215;-71
2023/06/19 12:50:04;;;;;;;1.60;1.50;;;24.10;43.30;;;;;;5005830;28;20527;-72
2023/06/19 12:52:30;;;;;;;1.67;1.57;;;24.10;43.30;;;;;;5006287;28;21017;-71
2023/06/19 12:54:56;;;;;;;1.50;1.40;;;24.10;43.30;;;;;;5004731;28;20669;-71
2023/06/19 12:57:21;;;;;;;1.60;1.50;;;24.10;43.30;;;;;;5003618;28;20452;-71
2023/06/19 12:59:47;;;;;;;1.90;1.80;;;24.10;43.20;;;;;;5004473;28;20191;-71
2023/06/19 13:02:13;;;;;;;1.77;1.67;;;24.10;43.30;;;;;;5001324;28;20758;-72
2023/06/19 13:04:38;;;;;;;1.70;1.60;;;24.10;43.30;;;;;;5005193;28;20198;-71
2023/06/19 13:07:04;;;;;;;1.60;1.50;;;24.10;43.30;;;;;;5006400;28;20187;-71
2023/06/19 13:09:29;;;;;;;1.70;1.60;;;24.10;43.20;;;;;;5002259;28;20550;-71
2023/06/19 13:11:55;;;;;;;1.70;1.60;;;24.10;43.30;;;;;;5002186;28;20215;-71
2023/06/19 13:14:21;;;;;;;1.77;1.67;;;24.10;43.20;;;;;;5006913;28;20644;-71
2023/06/19 13:16:46;;;;;;;1.80;1.70;;;24.10;43.20;;;;;;5005288;28;20199;-71
2023/06/19 13:19:13;;;;;;;1.70;1.60;;;24.10;43.30;;;;;;5006312;28;20711;-71
2023/06/19 13:21:38;;;;;;;1.70;1.60;;;24.10;43.30;;;;;;5004583;28;20176;-71
2023/06/19 13:24:04;;;;;;;1.90;1.80;;;24.10;43.30;;;;;;5005874;28;20952;-71
2023/06/19 13:26:29;;;;;;;1.70;1.60;;;24.10;43.20;;;;;;5003451;28;20306;-71
2023/06/19 13:28:58;;;;;;;1.80;1.70;;;24.10;43.30;;;;;;5007896;28;20176;-71
2023/06/19 13:31:24;;;;;;;2.00;1.90;;;24.10;43.10;;;;;;4996609;28;20175;-71
2023/06/19 13:33:50;;;;;;;1.80;1.70;;;24.10;43.30;;;;;;5001149;28;20489;-71
2023/06/19 13:36:16;;;;;;;1.77;1.67;;;24.10;43.30;;;;;;5000844;28;20460;-71
2023/06/19 13:38:42;;;;;;;1.80;1.70;;;24.10;43.30;;;;;;5005074;28;20179;-71
2023/06/19 13:41:07;;;;;;;1.80;1.70;;;24.10;43.30;;;;;;5003469;28;20502;-72
2023/06/19 13:43:33;;;;;;;2.03;1.93;;;24.10;43.30;;;;;;5000079;28;20192;-71
2023/06/19 13:45:59;;;;;;;1.83;1.73;;;24.10;43.30;;;;;;5001205;28;20670;-71
2023/06/19 13:48:24;;;;;;;2.07;1.97;;;24.10;43.20;;;;;;5005754;28;20183;-72
2023/06/19 13:50:50;;;;;;;1.67;1.57;;;24.10;43.30;;;;;;5003490;28;20191;-71
2023/06/19 13:53:15;;;;;;;2.17;2.07;;;24.10;43.30;;;;;;5006927;28;20193;-71
2023/06/19 13:55:41;;;;;;;1.93;1.83;;;24.10;43.30;;;;;;5004722;28;20663;-71
2023/06/19 13:58:06;;;;;;;1.90;1.80;;;24.10;43.30;;;;;;5005636;28;20194;-71
2023/06/19 14:00:32;;;;;;;1.90;1.80;;;24.10;43.30;;;;;;5002022;28;20223;-69
2023/06/19 14:02:58;;;;;;;1.83;1.73;;;24.10;43.30;;;;;;5006649;28;20199;-71
2023/06/19 14:05:23;;;;;;;1.60;1.50;;;24.10;43.30;;;;;;5004878;28;20183;-71
2023/06/19 14:07:49;;;;;;;1.87;1.77;;;24.10;43.30;;;;;;5004132;28;20196;-71
2023/06/19 14:10:14;;;;;;;2.00;1.90;;;24.10;43.30;;;;;;5005142;28;20187;-71
2023/06/19 14:12:40;;;;;;;1.90;1.80;;;24.10;43.30;;;;;;5002539;28;20187;-71
2023/06/19 14:15:07;;;;;;;1.87;1.77;;;24.10;43.30;;;;;;5005709;28;20184;-71